sensor_id;sensor_type;location;lat;lon;timestamp;pressure;altitude;pressure_sealevel;temperature;humidity
60371;BME280;48550;40.588;49.684;2022-12-18T00:01:35;102824.28;;;7.75;100.00
60371;BME280;48550;40.588;49.684;2022-12-18T00:04:03;102820.94;;;7.73;100.00
60371;BME280;48550;40.588;49.684;2022-12-18T00:06:35;102829.47;;;7.84;100.00
60371;BME280;48550;40.588;49.684;2022-12-18T00:09:01;102835.13;;;7.73;100.00
60371;BME280;48550;40.588;49.684;2022-12-18T00:11:30;102830.94;;;7.71;100.00
60371;BME280;48550;40.588;49.684;2022-12-18T00:13:58;102830.78;;;7.72;100.00
60371;BME280;48550;40.588;49.684;2022-12-18T00:16:25;102824.41;;;7.65;100.00
60371;BME280;48550;40.588;49.684;2022-12-18T00:18:53;102824.75;;;7.70;100.00
60371;BME280;48550;40.588;49.684;2022-12-18T00:21:19;102821.75;;;7.65;100.00
60371;BME280;48550;40.588;49.684;2022-12-18T00:23:46;102819.75;;;7.67;100.00
60371;BME280;48550;40.588;49.684;2022-12-18T00:26:18;102817.38;;;7.64;100.00
60371;BME280;48550;40.588;49.684;2022-12-18T00:28:45;102823.41;;;7.66;100.00
60371;BME280;48550;40.588;49.684;2022-12-18T00:31:16;102818.41;;;7.71;100.00
60371;BME280;48550;40.588;49.684;2022-12-18T00:33:43;102815.06;;;7.69;100.00
60371;BME280;48550;40.588;49.684;2022-12-18T00:36:14;102809.06;;;7.67;100.00
60371;BME280;48550;40.588;49.684;2022-12-18T00:38:40;102805.22;;;7.70;100.00
60371;BME280;48550;40.588;49.684;2022-12-18T00:41:07;102806.69;;;7.64;100.00
60371;BME280;48550;40.588;49.684;2022-12-18T00:43:34;102798.00;;;7.62;100.00
60371;BME280;48550;40.588;49.684;2022-12-18T00:46:00;102798.16;;;7.60;100.00
60371;BME280;48550;40.588;49.684;2022-12-18T00:48:25;102794.31;;;7.55;100.00
60371;BME280;48550;40.588;49.684;2022-12-18T00:50:51;102796.63;;;7.50;100.00
60371;BME280;48550;40.588;49.684;2022-12-18T00:53:17;102781.75;;;7.47;100.00
60371;BME280;48550;40.588;49.684;2022-12-18T00:55:43;102787.09;;;7.47;100.00
60371;BME280;48550;40.588;49.684;2022-12-18T00:58:10;102793.59;;;7.45;100.00
60371;BME280;48550;40.588;49.684;2022-12-18T01:00:37;102788.56;;;7.42;100.00
60371;BME280;48550;40.588;49.684;2022-12-18T01:03:04;102782.53;;;7.40;100.00
60371;BME280;48550;40.588;49.684;2022-12-18T01:05:30;102776.19;;;7.41;100.00
60371;BME280;48550;40.588;49.684;2022-12-18T01:07:56;102777.94;;;7.50;100.00
60371;BME280;48550;40.588;49.684;2022-12-18T01:10:23;102776.41;;;7.47;100.00
60371;BME280;48550;40.588;49.684;2022-12-18T01:12:49;102776.41;;;7.47;100.00
60371;BME280;48550;40.588;49.684;2022-12-18T01:15:15;102768.56;;;7.46;100.00
60371;BME280;48550;40.588;49.684;2022-12-18T01:17:41;102772.59;;;7.58;100.00
60371;BME280;48550;40.588;49.684;2022-12-18T01:20:08;102777.94;;;7.50;100.00
60371;BME280;48550;40.588;49.684;2022-12-18T01:22:35;102772.06;;;7.46;100.00
60371;BME280;48550;40.588;49.684;2022-12-18T01:25:00;102782.22;;;7.43;100.00
60371;BME280;48550;40.588;49.684;2022-12-18T01:27:26;102775.06;;;7.43;100.00
60371;BME280;48550;40.588;49.684;2022-12-18T01:29:52;102775.69;;;7.37;100.00
60371;BME280;48550;40.588;49.684;2022-12-18T01:32:18;102774.00;;;7.36;100.00
60371;BME280;48550;40.588;49.684;2022-12-18T01:34:44;102778.19;;;7.39;100.00
60371;BME280;48550;40.588;49.684;2022-12-18T01:37:09;102775.38;;;7.40;100.00
60371;BME280;48550;40.588;49.684;2022-12-18T01:39:36;102773.00;;;7.37;100.00
60371;BME280;48550;40.588;49.684;2022-12-18T01:42:13;102773.16;;;7.36;100.00
60371;BME280;48550;40.588;49.684;2022-12-18T01:45:28;102768.63;;;7.28;100.00
60371;BME280;48550;40.588;49.684;2022-12-18T01:48:15;102764.28;;;7.27;100.00
60371;BME280;48550;40.588;49.684;2022-12-18T01:50:42;102762.78;;;7.24;100.00
60371;BME280;48550;40.588;49.684;2022-12-18T01:55:43;102762.44;;;7.19;100.00
60371;BME280;48550;40.588;49.684;2022-12-18T01:58:13;102767.09;;;7.17;100.00
60371;BME280;48550;40.588;49.684;2022-12-18T02:00:39;102765.09;;;7.19;100.00
60371;BME280;48550;40.588;49.684;2022-12-18T02:03:05;102755.94;;;7.22;100.00
60371;BME280;48550;40.588;49.684;2022-12-18T02:17:07;102749.13;;;7.36;100.00
60371;BME280;48550;40.588;49.684;2022-12-18T02:27:19;102739.78;;;7.31;100.00
60371;BME280;48550;40.588;49.684;2022-12-18T02:29:50;102746.63;;;7.34;100.00
60371;BME280;48550;40.588;49.684;2022-12-18T02:32:21;102749.53;;;7.49;100.00
60371;BME280;48550;40.588;49.684;2022-12-18T02:34:49;102746.19;;;7.47;100.00
60371;BME280;48550;40.588;49.684;2022-12-18T02:37:18;102745.03;;;7.49;100.00
60371;BME280;48550;40.588;49.684;2022-12-18T02:39:47;102744.03;;;7.50;100.00
60371;BME280;48550;40.588;49.684;2022-12-18T02:42:14;102745.34;;;7.46;100.00
60371;BME280;48550;40.588;49.684;2022-12-18T02:44:48;102746.13;;;7.39;100.00
60371;BME280;48550;40.588;49.684;2022-12-18T02:47:17;102745.72;;;7.51;100.00
60371;BME280;48550;40.588;49.684;2022-12-18T02:52:53;102753.22;;;7.48;100.00
60371;BME280;48550;40.588;49.684;2022-12-18T03:05:44;102748.81;;;7.39;100.00
60371;BME280;48550;40.588;49.684;2022-12-18T03:08:24;102733.16;;;7.44;100.00
60371;BME280;48550;40.588;49.684;2022-12-18T03:11:04;102745.53;;;7.45;100.00
60371;BME280;48550;40.588;49.684;2022-12-18T03:13:54;102742.47;;;7.40;100.00
60371;BME280;48550;40.588;49.684;2022-12-18T03:16:28;102737.84;;;7.50;100.00
60371;BME280;48550;40.588;49.684;2022-12-18T03:19:06;102743.03;;;7.51;100.00
60371;BME280;48550;40.588;49.684;2022-12-18T03:21:40;102746.38;;;7.53;100.00
60371;BME280;48550;40.588;49.684;2022-12-18T03:24:09;102745.31;;;7.38;100.00
60371;BME280;48550;40.588;49.684;2022-12-18T03:26:42;102743.47;;;7.39;100.00
60371;BME280;48550;40.588;49.684;2022-12-18T03:29:15;102745.13;;;7.40;100.00
60371;BME280;48550;40.588;49.684;2022-12-18T03:31:49;102755.47;;;7.34;100.00
60371;BME280;48550;40.588;49.684;2022-12-18T03:34:21;102749.38;;;7.50;100.00
60371;BME280;48550;40.588;49.684;2022-12-18T03:36:49;102748.41;;;7.59;100.00
60371;BME280;48550;40.588;49.684;2022-12-18T03:39:15;102757.66;;;7.39;100.00
60371;BME280;48550;40.588;49.684;2022-12-18T03:41:51;102756.66;;;7.40;100.00
60371;BME280;48550;40.588;49.684;2022-12-18T03:44:29;102752.69;;;7.44;100.00
60371;BME280;48550;40.588;49.684;2022-12-18T03:49:41;102753.56;;;7.53;100.00
60371;BME280;48550;40.588;49.684;2022-12-18T03:52:35;102745.63;;;7.35;100.00
60371;BME280;48550;40.588;49.684;2022-12-18T03:55:03;102741.97;;;7.36;100.00
60371;BME280;48550;40.588;49.684;2022-12-18T03:57:32;102752.44;;;7.29;100.00
60371;BME280;48550;40.588;49.684;2022-12-18T04:00:24;102741.09;;;7.27;100.00
60371;BME280;48550;40.588;49.684;2022-12-18T04:02:52;102753.25;;;7.22;100.00
60371;BME280;48550;40.588;49.684;2022-12-18T04:05:20;102747.91;;;7.22;100.00
60371;BME280;48550;40.588;49.684;2022-12-18T04:07:49;102751.59;;;7.21;100.00
60371;BME280;48550;40.588;49.684;2022-12-18T04:10:16;102746.09;;;7.22;100.00
60371;BME280;48550;40.588;49.684;2022-12-18T04:12:42;102745.44;;;7.28;100.00
60371;BME280;48550;40.588;49.684;2022-12-18T04:15:09;102756.63;;;7.32;100.00
60371;BME280;48550;40.588;49.684;2022-12-18T04:17:35;102756.41;;;7.59;100.00
60371;BME280;48550;40.588;49.684;2022-12-18T04:20:01;102758.94;;;7.69;100.00
60371;BME280;48550;40.588;49.684;2022-12-18T04:22:27;102757.69;;;8.54;100.00
60371;BME280;48550;40.588;49.684;2022-12-18T04:24:53;102761.66;;;7.93;100.00
60371;BME280;48550;40.588;49.684;2022-12-18T04:27:18;102756.47;;;8.08;100.00
60371;BME280;48550;40.588;49.684;2022-12-18T04:29:44;102750.13;;;7.93;100.00
60371;BME280;48550;40.588;49.684;2022-12-18T04:32:10;102759.31;;;7.98;100.00
60371;BME280;48550;40.588;49.684;2022-12-18T04:34:36;102753.31;;;7.96;100.00
60371;BME280;48550;40.588;49.684;2022-12-18T04:37:01;102754.03;;;8.47;100.00
60371;BME280;48550;40.588;49.684;2022-12-18T04:39:27;102757.34;;;8.66;100.00
60371;BME280;48550;40.588;49.684;2022-12-18T04:41:53;102754.53;;;8.51;100.00
60371;BME280;48550;40.588;49.684;2022-12-18T04:44:18;102755.34;;;8.51;100.00
60371;BME280;48550;40.588;49.684;2022-12-18T04:46:44;102764.72;;;8.31;100.00
60371;BME280;48550;40.588;49.684;2022-12-18T04:49:10;102746.97;;;8.14;100.00
60371;BME280;48550;40.588;49.684;2022-12-18T04:51:36;102748.63;;;8.07;100.00
60371;BME280;48550;40.588;49.684;2022-12-18T04:54:02;102743.09;;;8.08;100.00
60371;BME280;48550;40.588;49.684;2022-12-18T04:56:30;102749.66;;;8.22;100.00
60371;BME280;48550;40.588;49.684;2022-12-18T04:58:56;102746.69;;;8.33;100.00
60371;BME280;48550;40.588;49.684;2022-12-18T05:01:22;102749.50;;;8.40;100.00
60371;BME280;48550;40.588;49.684;2022-12-18T05:03:48;102747.00;;;8.38;100.00
60371;BME280;48550;40.588;49.684;2022-12-18T05:06:13;102754.00;;;8.55;100.00
60371;BME280;48550;40.588;49.684;2022-12-18T05:08:39;102750.16;;;8.58;100.00
60371;BME280;48550;40.588;49.684;2022-12-18T05:11:07;102755.28;;;9.39;100.00
60371;BME280;48550;40.588;49.684;2022-12-18T05:13:34;102745.56;;;10.75;100.00
60371;BME280;48550;40.588;49.684;2022-12-18T05:16:00;102752.03;;;11.40;100.00
60371;BME280;48550;40.588;49.684;2022-12-18T05:18:26;102740.22;;;12.13;100.00
60371;BME280;48550;40.588;49.684;2022-12-18T05:20:52;102741.13;;;12.48;100.00
60371;BME280;48550;40.588;49.684;2022-12-18T05:23:19;102748.59;;;13.50;100.00
60371;BME280;48550;40.588;49.684;2022-12-18T05:25:59;102740.88;;;13.40;100.00
60371;BME280;48550;40.588;49.684;2022-12-18T05:28:27;102748.03;;;13.20;100.00
60371;BME280;48550;40.588;49.684;2022-12-18T05:30:55;102743.16;;;14.57;100.00
60371;BME280;48550;40.588;49.684;2022-12-18T05:33:23;102738.13;;;14.80;100.00
60371;BME280;48550;40.588;49.684;2022-12-18T05:35:53;102737.94;;;14.16;100.00
60371;BME280;48550;40.588;49.684;2022-12-18T05:38:20;102736.22;;;14.94;100.00
60371;BME280;48550;40.588;49.684;2022-12-18T05:40:47;102754.31;;;15.00;100.00
60371;BME280;48550;40.588;49.684;2022-12-18T05:43:13;102742.50;;;14.68;100.00
60371;BME280;48550;40.588;49.684;2022-12-18T05:45:40;102751.03;;;14.12;100.00
60371;BME280;48550;40.588;49.684;2022-12-18T05:48:06;102733.25;;;13.50;100.00
60371;BME280;48550;40.588;49.684;2022-12-18T05:50:36;102736.25;;;14.02;100.00
60371;BME280;48550;40.588;49.684;2022-12-18T05:53:03;102723.97;;;13.79;100.00
60371;BME280;48550;40.588;49.684;2022-12-18T05:55:32;102736.66;;;13.98;100.00
60371;BME280;48550;40.588;49.684;2022-12-18T05:57:58;102734.78;;;13.86;100.00
60371;BME280;48550;40.588;49.684;2022-12-18T06:00:24;102728.13;;;13.95;100.00
60371;BME280;48550;40.588;49.684;2022-12-18T06:02:50;102707.38;;;13.89;100.00
60371;BME280;48550;40.588;49.684;2022-12-18T06:05:15;102723.34;;;13.90;100.00
60371;BME280;48550;40.588;49.684;2022-12-18T06:07:41;102725.03;;;13.24;100.00
60371;BME280;48550;40.588;49.684;2022-12-18T06:10:07;102724.84;;;13.32;100.00
60371;BME280;48550;40.588;49.684;2022-12-18T06:12:33;102731.41;;;13.57;100.00
60371;BME280;48550;40.588;49.684;2022-12-18T06:14:59;102731.34;;;12.40;100.00
60371;BME280;48550;40.588;49.684;2022-12-18T06:17:29;102738.59;;;11.40;100.00
60371;BME280;48550;40.588;49.684;2022-12-18T06:19:55;102733.63;;;10.93;100.00
60371;BME280;48550;40.588;49.684;2022-12-18T06:22:20;102741.56;;;10.57;100.00
60371;BME280;48550;40.588;49.684;2022-12-18T06:24:46;102749.81;;;10.32;100.00
60371;BME280;48550;40.588;49.684;2022-12-18T06:27:12;102752.31;;;10.11;100.00
60371;BME280;48550;40.588;49.684;2022-12-18T06:29:38;102748.88;;;10.02;100.00
60371;BME280;48550;40.588;49.684;2022-12-18T06:32:03;102732.19;;;9.92;100.00
60371;BME280;48550;40.588;49.684;2022-12-18T06:34:29;102736.88;;;10.13;100.00
60371;BME280;48550;40.588;49.684;2022-12-18T06:36:58;102724.97;;;9.93;100.00
60371;BME280;48550;40.588;49.684;2022-12-18T06:39:24;102718.66;;;9.85;100.00
60371;BME280;48550;40.588;49.684;2022-12-18T06:41:52;102717.81;;;9.85;100.00
60371;BME280;48550;40.588;49.684;2022-12-18T06:44:18;102724.59;;;9.96;100.00
60371;BME280;48550;40.588;49.684;2022-12-18T06:46:43;102726.75;;;10.00;100.00
60371;BME280;48550;40.588;49.684;2022-12-18T06:49:09;102725.56;;;10.03;100.00
60371;BME280;48550;40.588;49.684;2022-12-18T06:51:35;102730.91;;;10.03;100.00
60371;BME280;48550;40.588;49.684;2022-12-18T06:54:01;102737.50;;;10.23;100.00
60371;BME280;48550;40.588;49.684;2022-12-18T06:56:27;102737.66;;;9.99;100.00
60371;BME280;48550;40.588;49.684;2022-12-18T06:58:53;102749.03;;;10.01;100.00
60371;BME280;48550;40.588;49.684;2022-12-18T07:01:21;102740.34;;;9.99;100.00
60371;BME280;48550;40.588;49.684;2022-12-18T07:03:50;102741.47;;;10.27;100.00
60371;BME280;48550;40.588;49.684;2022-12-18T07:06:18;102731.41;;;10.29;100.00
60371;BME280;48550;40.588;49.684;2022-12-18T07:08:45;102731.75;;;10.49;100.00
60371;BME280;48550;40.588;49.684;2022-12-18T07:11:12;102721.19;;;10.47;100.00
60371;BME280;48550;40.588;49.684;2022-12-18T07:13:38;102729.59;;;10.44;100.00
60371;BME280;48550;40.588;49.684;2022-12-18T07:16:06;102723.34;;;10.29;100.00
60371;BME280;48550;40.588;49.684;2022-12-18T07:18:31;102724.44;;;10.20;100.00
60371;BME280;48550;40.588;49.684;2022-12-18T07:20:57;102717.66;;;10.47;100.00
60371;BME280;48550;40.588;49.684;2022-12-18T07:23:23;102722.25;;;10.38;100.00
60371;BME280;48550;40.588;49.684;2022-12-18T07:25:48;102710.91;;;10.51;100.00
60371;BME280;48550;40.588;49.684;2022-12-18T07:28:14;102708.78;;;10.46;100.00
60371;BME280;48550;40.588;49.684;2022-12-18T07:30:40;102700.13;;;10.36;100.00
60371;BME280;48550;40.588;49.684;2022-12-18T07:33:05;102704.97;;;10.41;100.00
60371;BME280;48550;40.588;49.684;2022-12-18T07:35:33;102702.75;;;10.44;100.00
60371;BME280;48550;40.588;49.684;2022-12-18T07:37:58;102700.44;;;10.41;100.00
60371;BME280;48550;40.588;49.684;2022-12-18T07:40:27;102692.41;;;10.56;100.00
60371;BME280;48550;40.588;49.684;2022-12-18T07:42:53;102691.38;;;10.72;100.00
60371;BME280;48550;40.588;49.684;2022-12-18T07:45:18;102695.72;;;10.73;100.00
60371;BME280;48550;40.588;49.684;2022-12-18T07:47:44;102691.00;;;10.45;100.00
60371;BME280;48550;40.588;49.684;2022-12-18T07:50:10;102703.50;;;10.53;100.00
60371;BME280;48550;40.588;49.684;2022-12-18T07:52:35;102708.59;;;10.63;100.00
60371;BME280;48550;40.588;49.684;2022-12-18T07:55:01;102708.69;;;10.84;100.00
60371;BME280;48550;40.588;49.684;2022-12-18T07:57:27;102695.97;;;11.07;100.00
60371;BME280;48550;40.588;49.684;2022-12-18T07:59:53;102686.91;;;11.23;100.00
60371;BME280;48550;40.588;49.684;2022-12-18T08:02:18;102685.78;;;11.03;100.00
60371;BME280;48550;40.588;49.684;2022-12-18T08:04:44;102684.41;;;10.92;100.00
60371;BME280;48550;40.588;49.684;2022-12-18T08:07:10;102672.75;;;11.00;100.00
60371;BME280;48550;40.588;49.684;2022-12-18T08:09:35;102658.31;;;10.86;100.00
60371;BME280;48550;40.588;49.684;2022-12-18T08:12:01;102673.03;;;10.61;100.00
60371;BME280;48550;40.588;49.684;2022-12-18T08:14:27;102657.19;;;10.80;100.00
60371;BME280;48550;40.588;49.684;2022-12-18T08:16:52;102660.72;;;10.66;100.00
60371;BME280;48550;40.588;49.684;2022-12-18T08:19:18;102657.41;;;10.64;100.00
60371;BME280;48550;40.588;49.684;2022-12-18T08:21:44;102647.31;;;10.66;100.00
60371;BME280;48550;40.588;49.684;2022-12-18T08:24:09;102649.91;;;10.60;100.00
60371;BME280;48550;40.588;49.684;2022-12-18T08:26:36;102635.66;;;10.59;100.00
60371;BME280;48550;40.588;49.684;2022-12-18T08:29:02;102640.47;;;10.49;100.00
60371;BME280;48550;40.588;49.684;2022-12-18T08:31:29;102637.78;;;10.49;100.00
60371;BME280;48550;40.588;49.684;2022-12-18T08:33:56;102631.63;;;10.26;100.00
60371;BME280;48550;40.588;49.684;2022-12-18T08:36:23;102643.47;;;10.31;100.00
60371;BME280;48550;40.588;49.684;2022-12-18T08:38:50;102625.63;;;10.82;100.00
60371;BME280;48550;40.588;49.684;2022-12-18T08:41:17;102609.41;;;10.76;100.00
60371;BME280;48550;40.588;49.684;2022-12-18T08:43:43;102625.22;;;11.00;100.00
60371;BME280;48550;40.588;49.684;2022-12-18T08:46:32;102615.31;;;10.86;100.00
60371;BME280;48550;40.588;49.684;2022-12-18T08:48:59;102618.81;;;11.01;100.00
60371;BME280;48550;40.588;49.684;2022-12-18T08:51:24;102606.25;;;10.87;100.00
60371;BME280;48550;40.588;49.684;2022-12-18T08:53:50;102602.22;;;10.98;100.00
60371;BME280;48550;40.588;49.684;2022-12-18T08:56:16;102588.00;;;10.82;100.00
60371;BME280;48550;40.588;49.684;2022-12-18T08:58:42;102599.31;;;10.78;100.00
60371;BME280;48550;40.588;49.684;2022-12-18T09:01:10;102574.50;;;10.76;100.00
60371;BME280;48550;40.588;49.684;2022-12-18T09:03:37;102575.09;;;10.57;100.00
60371;BME280;48550;40.588;49.684;2022-12-18T09:06:03;102572.03;;;10.60;100.00
60371;BME280;48550;40.588;49.684;2022-12-18T09:08:29;102558.22;;;10.63;100.00
60371;BME280;48550;40.588;49.684;2022-12-18T09:10:55;102567.56;;;10.67;100.00
60371;BME280;48550;40.588;49.684;2022-12-18T09:13:21;102555.00;;;10.53;100.00
60371;BME280;48550;40.588;49.684;2022-12-18T09:15:50;102552.25;;;10.46;100.00
60371;BME280;48550;40.588;49.684;2022-12-18T09:18:18;102542.03;;;10.56;100.00
60371;BME280;48550;40.588;49.684;2022-12-18T09:20:44;102543.44;;;10.52;100.00
60371;BME280;48550;40.588;49.684;2022-12-18T09:23:10;102541.03;;;10.57;100.00
60371;BME280;48550;40.588;49.684;2022-12-18T09:25:37;102544.88;;;10.69;100.00
60371;BME280;48550;40.588;49.684;2022-12-18T09:28:05;102533.41;;;10.61;100.00
60371;BME280;48550;40.588;49.684;2022-12-18T09:30:31;102520.22;;;10.44;100.00
60371;BME280;48550;40.588;49.684;2022-12-18T09:32:59;102508.38;;;10.24;100.00
60371;BME280;48550;40.588;49.684;2022-12-18T09:35:25;102545.56;;;10.27;100.00
60371;BME280;48550;40.588;49.684;2022-12-18T09:37:50;102535.00;;;9.96;100.00
60371;BME280;48550;40.588;49.684;2022-12-18T09:40:19;102530.28;;;9.98;100.00
60371;BME280;48550;40.588;49.684;2022-12-18T09:42:54;102541.28;;;9.88;100.00
60371;BME280;48550;40.588;49.684;2022-12-18T09:45:21;102533.03;;;9.90;100.00
60371;BME280;48550;40.588;49.684;2022-12-18T09:47:48;102532.13;;;9.83;100.00
60371;BME280;48550;40.588;49.684;2022-12-18T09:53:21;102550.41;;;9.79;100.00
60371;BME280;48550;40.588;49.684;2022-12-18T09:55:51;102552.38;;;9.85;100.00
60371;BME280;48550;40.588;49.684;2022-12-18T09:58:32;102553.94;;;9.95;100.00
60371;BME280;48550;40.588;49.684;2022-12-18T10:01:00;102543.97;;;10.03;100.00
60371;BME280;48550;40.588;49.684;2022-12-18T10:03:26;102533.06;;;10.05;100.00
60371;BME280;48550;40.588;49.684;2022-12-18T10:14:42;102519.91;;;10.10;100.00
60371;BME280;48550;40.588;49.684;2022-12-18T10:19:49;102520.75;;;10.10;100.00
60371;BME280;48550;40.588;49.684;2022-12-18T10:27:53;102528.34;;;10.22;100.00
60371;BME280;48550;40.588;49.684;2022-12-18T10:30:22;102525.88;;;10.20;100.00
60371;BME280;48550;40.588;49.684;2022-12-18T10:32:48;102525.75;;;9.99;100.00
60371;BME280;48550;40.588;49.684;2022-12-18T10:35:24;102516.22;;;10.11;100.00
60371;BME280;48550;40.588;49.684;2022-12-18T10:40:26;102504.09;;;10.15;100.00
60371;BME280;48550;40.588;49.684;2022-12-18T10:43:12;102512.31;;;10.13;100.00
60371;BME280;48550;40.588;49.684;2022-12-18T10:45:40;102506.78;;;10.30;100.00
60371;BME280;48550;40.588;49.684;2022-12-18T10:48:18;102507.97;;;10.12;100.00
60371;BME280;48550;40.588;49.684;2022-12-18T10:50:49;102505.13;;;9.99;100.00
60371;BME280;48550;40.588;49.684;2022-12-18T10:53:21;102522.50;;;10.03;100.00
60371;BME280;48550;40.588;49.684;2022-12-18T10:55:47;102504.56;;;10.04;100.00
60371;BME280;48550;40.588;49.684;2022-12-18T11:01:14;102498.81;;;9.92;100.00
60371;BME280;48550;40.588;49.684;2022-12-18T11:04:08;102508.91;;;10.05;100.00
60371;BME280;48550;40.588;49.684;2022-12-18T11:06:34;102500.59;;;10.00;100.00
60371;BME280;48550;40.588;49.684;2022-12-18T11:09:20;102502.72;;;9.90;100.00
60371;BME280;48550;40.588;49.684;2022-12-18T11:11:51;102485.78;;;10.04;100.00
60371;BME280;48550;40.588;49.684;2022-12-18T11:14:31;102477.00;;;9.95;100.00
60371;BME280;48550;40.588;49.684;2022-12-18T11:16:59;102469.59;;;9.97;100.00
60371;BME280;48550;40.588;49.684;2022-12-18T11:19:39;102479.22;;;9.92;100.00
60371;BME280;48550;40.588;49.684;2022-12-18T11:22:27;102482.81;;;9.84;100.00
60371;BME280;48550;40.588;49.684;2022-12-18T11:24:58;102474.31;;;9.80;100.00
60371;BME280;48550;40.588;49.684;2022-12-18T11:27:26;102481.63;;;9.86;100.00
60371;BME280;48550;40.588;49.684;2022-12-18T11:30:21;102476.91;;;9.88;100.00
60371;BME280;48550;40.588;49.684;2022-12-18T11:33:10;102473.56;;;9.86;100.00
60371;BME280;48550;40.588;49.684;2022-12-18T11:40:40;102472.19;;;9.91;100.00
60371;BME280;48550;40.588;49.684;2022-12-18T11:43:17;102475.97;;;9.96;100.00
60371;BME280;48550;40.588;49.684;2022-12-18T11:45:59;102471.09;;;9.85;100.00
60371;BME280;48550;40.588;49.684;2022-12-18T11:51:00;102478.47;;;9.98;100.00
60371;BME280;48550;40.588;49.684;2022-12-18T11:53:27;102466.19;;;9.88;100.00
60371;BME280;48550;40.588;49.684;2022-12-18T11:58:45;102471.91;;;9.85;100.00
60371;BME280;48550;40.588;49.684;2022-12-18T12:01:39;102437.88;;;9.71;100.00
60371;BME280;48550;40.588;49.684;2022-12-18T12:06:59;102452.63;;;9.52;100.00
60371;BME280;48550;40.588;49.684;2022-12-18T12:09:33;102458.66;;;9.54;100.00
60371;BME280;48550;40.588;49.684;2022-12-18T12:12:27;102457.28;;;9.59;100.00
60371;BME280;48550;40.588;49.684;2022-12-18T12:20:43;102444.13;;;9.49;100.00
60371;BME280;48550;40.588;49.684;2022-12-18T12:26:01;102451.06;;;9.43;100.00
60371;BME280;48550;40.588;49.684;2022-12-18T12:31:46;102440.50;;;9.27;100.00
60371;BME280;48550;40.588;49.684;2022-12-18T12:34:38;102447.66;;;9.12;100.00
60371;BME280;48550;40.588;49.684;2022-12-18T12:37:22;102457.16;;;9.37;100.00
60371;BME280;48550;40.588;49.684;2022-12-18T12:39:51;102431.97;;;9.09;100.00
60371;BME280;48550;40.588;49.684;2022-12-18T12:42:31;102441.66;;;9.10;100.00
60371;BME280;48550;40.588;49.684;2022-12-18T12:45:22;102438.16;;;8.86;100.00
60371;BME280;48550;40.588;49.684;2022-12-18T12:47:52;102432.31;;;8.83;100.00
60371;BME280;48550;40.588;49.684;2022-12-18T12:50:20;102438.38;;;8.77;100.00
60371;BME280;48550;40.588;49.684;2022-12-18T12:52:51;102436.72;;;8.76;100.00
60371;BME280;48550;40.588;49.684;2022-12-18T12:55:26;102433.16;;;8.83;100.00
60371;BME280;48550;40.588;49.684;2022-12-18T12:58:22;102437.09;;;8.73;100.00
60371;BME280;48550;40.588;49.684;2022-12-18T13:01:16;102419.88;;;10.67;100.00
60371;BME280;48550;40.588;49.684;2022-12-18T13:04:21;102431.59;;;9.79;100.00
60371;BME280;48550;40.588;49.684;2022-12-18T13:07:12;102434.38;;;9.18;100.00
60371;BME280;48550;40.588;49.684;2022-12-18T13:13:20;102420.66;;;8.76;100.00
60371;BME280;48550;40.588;49.684;2022-12-18T13:16:05;102421.78;;;8.58;100.00
60371;BME280;48550;40.588;49.684;2022-12-18T13:18:32;102425.72;;;8.48;100.00
60371;BME280;48550;40.588;49.684;2022-12-18T13:25:50;102424.28;;;8.29;100.00
60371;BME280;48550;40.588;49.684;2022-12-18T13:28:20;102423.94;;;8.32;100.00
60371;BME280;48550;40.588;49.684;2022-12-18T13:30:49;102427.31;;;8.26;100.00
60371;BME280;48550;40.588;49.684;2022-12-18T13:41:04;102437.19;;;8.17;100.00
60371;BME280;48550;40.588;49.684;2022-12-18T13:43:50;102442.72;;;8.16;100.00
60371;BME280;48550;40.588;49.684;2022-12-18T13:49:02;102443.91;;;8.21;100.00
60371;BME280;48550;40.588;49.684;2022-12-18T13:51:32;102457.75;;;8.17;100.00
60371;BME280;48550;40.588;49.684;2022-12-18T13:54:06;102462.94;;;8.26;100.00
60371;BME280;48550;40.588;49.684;2022-12-18T13:56:44;102442.22;;;8.20;100.00
60371;BME280;48550;40.588;49.684;2022-12-18T13:59:16;102454.72;;;8.28;100.00
60371;BME280;48550;40.588;49.684;2022-12-18T14:01:48;102459.09;;;8.21;100.00
60371;BME280;48550;40.588;49.684;2022-12-18T14:04:33;102445.56;;;8.14;100.00
60371;BME280;48550;40.588;49.684;2022-12-18T14:07:10;102455.13;;;8.09;100.00
60371;BME280;48550;40.588;49.684;2022-12-18T14:09:43;102455.44;;;8.14;100.00
60371;BME280;48550;40.588;49.684;2022-12-18T14:12:27;102463.66;;;8.04;100.00
60371;BME280;48550;40.588;49.684;2022-12-18T14:15:40;102466.84;;;8.00;100.00
60371;BME280;48550;40.588;49.684;2022-12-18T14:18:19;102470.38;;;8.00;100.00
60371;BME280;48550;40.588;49.684;2022-12-18T14:20:46;102479.38;;;8.07;100.00
60371;BME280;48550;40.588;49.684;2022-12-18T14:25:55;102486.59;;;7.98;100.00
60371;BME280;48550;40.588;49.684;2022-12-18T14:28:21;102495.81;;;7.88;100.00
60371;BME280;48550;40.588;49.684;2022-12-18T14:30:51;102478.28;;;7.85;100.00
60371;BME280;48550;40.588;49.684;2022-12-18T14:33:21;102467.91;;;7.82;100.00
60371;BME280;48550;40.588;49.684;2022-12-18T14:36:00;102475.28;;;7.80;100.00
60371;BME280;48550;40.588;49.684;2022-12-18T14:38:30;102471.28;;;7.76;100.00
60371;BME280;48550;40.588;49.684;2022-12-18T14:41:15;102480.13;;;7.77;100.00